CCAYT SCEL-SCNT
Flight info
| Callsign | CCAYT |
|---|---|
| Flight time | 3h 10m |
| Altitude | 39000 |
| Route | N0430F390 LINE6C LINER UQ805 NISDO/N0428F410 UQ805 TIGNO UQ803 BODOM BODO3A |
| Aircraft | C25C/M-SDE2E3FGHRWXY/LB1 |
Departure
| Time | 2026-04-26 10:59 |
|---|---|
| Airport | Comodoro Arturo Merino Benítez International Airport (SCEL) |
Arrival
| Time | 2026-04-26 14:10 |
|---|---|
| Airport | Lieutenant Julio Gallardo Airport (SCNT) |
| Time | Latitude | Longitude | Altitude | Speed | Heading |
|---|---|---|---|---|---|
| 2026-04-26 10:47 | -33.39223 | -70.79204 | 1558 ft | 0 kts | 360° |
| 2026-04-26 10:55 | -33.39210 | -70.79196 | 1558 ft | 4 kts | 62° |
| 2026-04-26 10:55 | -33.39197 | -70.79147 | 1558 ft | 8 kts | 15° |
| 2026-04-26 10:55 | -33.39117 | -70.79151 | 1558 ft | 14 kts | 357° |
| 2026-04-26 10:55 | -33.39024 | -70.79124 | 1558 ft | 13 kts | 81° |
| 2026-04-26 10:56 | -33.39019 | -70.78993 | 1558 ft | 19 kts | 87° |
| 2026-04-26 10:56 | -33.38951 | -70.78921 | 1558 ft | 21 kts | 358° |
| 2026-04-26 10:56 | -33.38793 | -70.78927 | 1558 ft | 25 kts | 358° |
| 2026-04-26 10:56 | -33.38650 | -70.78933 | 1558 ft | 12 kts | 14° |
| 2026-04-26 10:57 | -33.38618 | -70.78836 | 1558 ft | 15 kts | 27° |
| 2026-04-26 10:57 | -33.38488 | -70.78836 | 1558 ft | 19 kts | 15° |
| 2026-04-26 10:57 | -33.38529 | -70.78744 | 1558 ft | 15 kts | 147° |
| 2026-04-26 10:57 | -33.38616 | -70.78677 | 1558 ft | 15 kts | 146° |
| 2026-04-26 10:58 | -33.38700 | -70.78613 | 1557 ft | 11 kts | 163° |
| 2026-04-26 10:58 | -33.38731 | -70.78611 | 1557 ft | 0 kts | 176° |
| 2026-04-26 10:59 | -33.38799 | -70.78607 | 1558 ft | 32 kts | 178° |
| 2026-04-26 10:59 | -33.39346 | -70.78578 | 1558 ft | 123 kts | 178° |
| 2026-04-26 10:59 | -33.40383 | -70.78528 | 1888 ft | 161 kts | 178° |
| 2026-04-26 10:59 | -33.41535 | -70.78485 | 2752 ft | 167 kts | 175° |
| 2026-04-26 11:00 | -33.42707 | -70.78369 | 3613 ft | 174 kts | 176° |
| 2026-04-26 11:00 | -33.43998 | -70.78285 | 4159 ft | 196 kts | 176° |
| 2026-04-26 11:00 | -33.45436 | -70.78205 | 4853 ft | 219 kts | 176° |
| 2026-04-26 11:00 | -33.47062 | -70.78106 | 5447 ft | 246 kts | 176° |
| 2026-04-26 11:01 | -33.48844 | -70.78002 | 6028 ft | 268 kts | 176° |
| 2026-04-26 11:01 | -33.50708 | -70.77889 | 7022 ft | 271 kts | 177° |
| 2026-04-26 11:01 | -33.52612 | -70.77777 | 7996 ft | 274 kts | 176° |
| 2026-04-26 11:01 | -33.54533 | -70.77662 | 8991 ft | 277 kts | 177° |
| 2026-04-26 11:02 | -33.56466 | -70.77705 | 9968 ft | 280 kts | 186° |
| 2026-04-26 11:02 | -33.58404 | -70.78101 | 10581 ft | 296 kts | 189° |
| 2026-04-26 11:02 | -33.60539 | -70.78514 | 10779 ft | 322 kts | 187° |
| 2026-04-26 11:02 | -33.62785 | -70.78834 | 11554 ft | 323 kts | 186° |
| 2026-04-26 11:03 | -33.64992 | -70.79141 | 12399 ft | 323 kts | 187° |
| 2026-04-26 11:03 | -33.67235 | -70.79475 | 13207 ft | 324 kts | 188° |
| 2026-04-26 11:03 | -33.69463 | -70.79822 | 14014 ft | 325 kts | 189° |
| 2026-04-26 11:03 | -33.71725 | -70.80163 | 14700 ft | 327 kts | 189° |
| 2026-04-26 11:04 | -33.74004 | -70.80505 | 15378 ft | 330 kts | 189° |
| 2026-04-26 11:04 | -33.76271 | -70.80843 | 16030 ft | 332 kts | 189° |
| 2026-04-26 11:04 | -33.78591 | -70.81197 | 16679 ft | 335 kts | 189° |
| 2026-04-26 11:04 | -33.80896 | -70.81544 | 17325 ft | 337 kts | 190° |
| 2026-04-26 11:05 | -33.83228 | -70.81896 | 17958 ft | 340 kts | 190° |
| 2026-04-26 11:05 | -33.85578 | -70.82251 | 18570 ft | 342 kts | 190° |
| 2026-04-26 11:05 | -33.87963 | -70.82610 | 19138 ft | 345 kts | 190° |
| 2026-04-26 11:05 | -33.90353 | -70.82973 | 19720 ft | 348 kts | 191° |
| 2026-04-26 11:06 | -33.92782 | -70.83340 | 20176 ft | 352 kts | 191° |
| 2026-04-26 11:06 | -33.94382 | -70.83584 | 20486 ft | 354 kts | 191° |
| 2026-04-26 11:06 | -33.97669 | -70.84080 | 21303 ft | 356 kts | 191° |
| 2026-04-26 11:06 | -34.00117 | -70.84450 | 21888 ft | 359 kts | 191° |
| 2026-04-26 11:07 | -34.02623 | -70.84833 | 22465 ft | 362 kts | 191° |
| 2026-04-26 11:07 | -34.05124 | -70.85210 | 23048 ft | 365 kts | 191° |
| 2026-04-26 11:07 | -34.07668 | -70.85596 | 23604 ft | 368 kts | 191° |
| 2026-04-26 11:07 | -34.10198 | -70.85984 | 24075 ft | 371 kts | 191° |
| 2026-04-26 11:08 | -34.12784 | -70.86373 | 24545 ft | 373 kts | 191° |
| 2026-04-26 11:08 | -34.15351 | -70.86766 | 24984 ft | 375 kts | 191° |
| 2026-04-26 11:08 | -34.17963 | -70.87162 | 25407 ft | 378 kts | 191° |
| 2026-04-26 11:08 | -34.20566 | -70.87559 | 25807 ft | 380 kts | 191° |
| 2026-04-26 11:09 | -34.23212 | -70.87964 | 26206 ft | 382 kts | 191° |
| 2026-04-26 11:09 | -34.25843 | -70.88363 | 26570 ft | 385 kts | 191° |
| 2026-04-26 11:09 | -34.28513 | -70.88772 | 26945 ft | 386 kts | 191° |
| 2026-04-26 11:09 | -34.31165 | -70.89175 | 27299 ft | 388 kts | 191° |
| 2026-04-26 11:10 | -34.33862 | -70.89589 | 27631 ft | 390 kts | 191° |
| 2026-04-26 11:10 | -34.36565 | -70.90000 | 27960 ft | 391 kts | 191° |
| 2026-04-26 11:10 | -34.39279 | -70.90418 | 28314 ft | 392 kts | 191° |
| 2026-04-26 11:10 | -34.41960 | -70.90824 | 28778 ft | 389 kts | 191° |
| 2026-04-26 11:11 | -34.44621 | -70.91233 | 29232 ft | 388 kts | 191° |
| 2026-04-26 11:11 | -34.47317 | -70.91648 | 29679 ft | 386 kts | 191° |
| 2026-04-26 11:11 | -34.49959 | -70.92052 | 30099 ft | 386 kts | 191° |
| 2026-04-26 11:11 | -34.52630 | -70.92463 | 30500 ft | 384 kts | 191° |
| 2026-04-26 11:12 | -34.55294 | -70.92870 | 30840 ft | 384 kts | 191° |
| 2026-04-26 11:12 | -34.57924 | -70.93278 | 31153 ft | 384 kts | 191° |
| 2026-04-26 11:12 | -34.60577 | -70.93683 | 31465 ft | 383 kts | 191° |
| 2026-04-26 11:12 | -34.63235 | -70.94093 | 31770 ft | 383 kts | 191° |
| 2026-04-26 11:13 | -34.65851 | -70.94495 | 32079 ft | 382 kts | 192° |
| 2026-04-26 11:13 | -34.68498 | -70.94904 | 32379 ft | 382 kts | 192° |
| 2026-04-26 11:13 | -34.71138 | -70.95311 | 32678 ft | 382 kts | 192° |
| 2026-04-26 11:13 | -34.73773 | -70.95716 | 32974 ft | 381 kts | 192° |
| 2026-04-26 11:14 | -34.75522 | -70.95988 | 33154 ft | 381 kts | 192° |
| 2026-04-26 11:14 | -34.78151 | -70.96392 | 33433 ft | 381 kts | 192° |
| 2026-04-26 11:14 | -34.80781 | -70.96801 | 33695 ft | 381 kts | 192° |
| 2026-04-26 11:14 | -34.83420 | -70.97207 | 33962 ft | 381 kts | 192° |
| 2026-04-26 11:15 | -34.86047 | -70.97615 | 34205 ft | 381 kts | 192° |
| 2026-04-26 11:15 | -34.88684 | -70.98023 | 34423 ft | 380 kts | 192° |
| 2026-04-26 11:15 | -34.91311 | -70.98429 | 34653 ft | 380 kts | 192° |
| 2026-04-26 11:15 | -34.93904 | -70.98832 | 34874 ft | 379 kts | 192° |
| 2026-04-26 11:16 | -34.96531 | -70.99238 | 35091 ft | 379 kts | 193° |
| 2026-04-26 11:16 | -34.99152 | -70.99646 | 35317 ft | 378 kts | 193° |
| 2026-04-26 11:16 | -35.01747 | -71.00049 | 35538 ft | 377 kts | 193° |
| 2026-04-26 11:16 | -35.04332 | -71.00451 | 35740 ft | 377 kts | 193° |
| 2026-04-26 11:17 | -35.06938 | -71.00856 | 35988 ft | 376 kts | 193° |
| 2026-04-26 11:17 | -35.09545 | -71.01261 | 36210 ft | 376 kts | 193° |
| 2026-04-26 11:17 | -35.12117 | -71.01663 | 36445 ft | 375 kts | 193° |
| 2026-04-26 11:17 | -35.14710 | -71.02067 | 36661 ft | 374 kts | 194° |
| 2026-04-26 11:18 | -35.17301 | -71.02470 | 36935 ft | 373 kts | 193° |
| 2026-04-26 11:18 | -35.19880 | -71.02873 | 37178 ft | 372 kts | 194° |
| 2026-04-26 11:18 | -35.22421 | -71.03270 | 37428 ft | 371 kts | 194° |
| 2026-04-26 11:18 | -35.24997 | -71.03671 | 37674 ft | 371 kts | 194° |
| 2026-04-26 11:19 | -35.27558 | -71.04073 | 37930 ft | 370 kts | 194° |
| 2026-04-26 11:19 | -35.30091 | -71.04469 | 38184 ft | 369 kts | 194° |
| 2026-04-26 11:19 | -35.32650 | -71.04870 | 38477 ft | 368 kts | 194° |
| 2026-04-26 11:19 | -35.35173 | -71.05264 | 38740 ft | 368 kts | 194° |
| 2026-04-26 11:20 | -35.37727 | -71.05664 | 38987 ft | 367 kts | 195° |
| 2026-04-26 11:20 | -35.40247 | -71.06061 | 39134 ft | 368 kts | 195° |
| 2026-04-26 11:20 | -35.45385 | -71.06870 | 39203 ft | 376 kts | 194° |
| 2026-04-26 11:21 | -35.50573 | -71.07681 | 39227 ft | 376 kts | 194° |
| 2026-04-26 11:21 | -35.55760 | -71.08500 | 39234 ft | 376 kts | 194° |
| 2026-04-26 11:22 | -35.60973 | -71.09320 | 39240 ft | 376 kts | 194° |
| 2026-04-26 11:22 | -35.66147 | -71.10136 | 39241 ft | 375 kts | 194° |
| 2026-04-26 11:23 | -35.71324 | -71.10954 | 39237 ft | 375 kts | 194° |
| 2026-04-26 11:23 | -35.76506 | -71.11774 | 39221 ft | 373 kts | 195° |
| 2026-04-26 11:24 | -35.81597 | -71.12582 | 39221 ft | 371 kts | 194° |
| 2026-04-26 11:24 | -35.86720 | -71.13395 | 39233 ft | 371 kts | 194° |
| 2026-04-26 11:25 | -35.91875 | -71.14214 | 39331 ft | 372 kts | 195° |
| 2026-04-26 11:25 | -35.97016 | -71.15032 | 39462 ft | 374 kts | 194° |
| 2026-04-26 11:26 | -35.99615 | -71.15443 | 39598 ft | 374 kts | 195° |
| 2026-04-26 11:26 | -36.02181 | -71.15852 | 39763 ft | 374 kts | 194° |
| 2026-04-26 11:26 | -36.04778 | -71.16269 | 39973 ft | 374 kts | 195° |
| 2026-04-26 11:26 | -36.07335 | -71.16676 | 40143 ft | 374 kts | 194° |
| 2026-04-26 11:27 | -36.09933 | -71.17088 | 40351 ft | 374 kts | 195° |
| 2026-04-26 11:27 | -36.12488 | -71.17498 | 40528 ft | 374 kts | 195° |
| 2026-04-26 11:27 | -36.15087 | -71.17914 | 40697 ft | 375 kts | 195° |
| 2026-04-26 11:27 | -36.17661 | -71.18326 | 40874 ft | 375 kts | 195° |
| 2026-04-26 11:28 | -36.20257 | -71.18741 | 41072 ft | 374 kts | 195° |
| 2026-04-26 11:28 | -36.22861 | -71.19157 | 41178 ft | 377 kts | 195° |
| 2026-04-26 11:28 | -36.28095 | -71.20000 | 41231 ft | 383 kts | 195° |
| 2026-04-26 11:29 | -36.33366 | -71.20839 | 41253 ft | 382 kts | 195° |
| 2026-04-26 11:29 | -36.38623 | -71.21688 | 41253 ft | 380 kts | 195° |
| 2026-04-26 11:30 | -36.42971 | -71.22386 | 41262 ft | 378 kts | 195° |
| 2026-04-26 11:30 | -36.49051 | -71.23367 | 41265 ft | 377 kts | 195° |
| 2026-04-26 11:31 | -36.54263 | -71.24209 | 41273 ft | 375 kts | 195° |
| 2026-04-26 11:31 | -36.59419 | -71.25042 | 41268 ft | 374 kts | 195° |
| 2026-04-26 11:32 | -36.64574 | -71.25878 | 41268 ft | 375 kts | 194° |
| 2026-04-26 11:32 | -36.69763 | -71.26717 | 41276 ft | 376 kts | 194° |
| 2026-04-26 11:33 | -36.74957 | -71.27560 | 41278 ft | 377 kts | 194° |
| 2026-04-26 11:33 | -36.80146 | -71.28405 | 41287 ft | 375 kts | 194° |
| 2026-04-26 11:34 | -36.85343 | -71.29250 | 41291 ft | 375 kts | 194° |
| 2026-04-26 11:34 | -36.90503 | -71.30090 | 41291 ft | 375 kts | 194° |
| 2026-04-26 11:35 | -36.95665 | -71.30932 | 41297 ft | 375 kts | 194° |
| 2026-04-26 11:35 | -36.99942 | -71.31631 | 41303 ft | 373 kts | 194° |
| 2026-04-26 11:36 | -37.05950 | -71.32614 | 41306 ft | 373 kts | 194° |
| 2026-04-26 11:36 | -37.11113 | -71.33460 | 41310 ft | 372 kts | 193° |
| 2026-04-26 11:37 | -37.16236 | -71.34301 | 41315 ft | 371 kts | 193° |
| 2026-04-26 11:37 | -37.21360 | -71.35142 | 41324 ft | 371 kts | 193° |
| 2026-04-26 11:38 | -37.26468 | -71.35985 | 41328 ft | 370 kts | 193° |
| 2026-04-26 11:38 | -37.31559 | -71.36822 | 41333 ft | 370 kts | 193° |
| 2026-04-26 11:39 | -37.36669 | -71.37664 | 41337 ft | 371 kts | 193° |
| 2026-04-26 11:39 | -37.41805 | -71.38515 | 41338 ft | 371 kts | 193° |
| 2026-04-26 11:40 | -37.46914 | -71.39357 | 41345 ft | 370 kts | 193° |
| 2026-04-26 11:40 | -37.52019 | -71.40205 | 41345 ft | 370 kts | 193° |
| 2026-04-26 11:42 | -37.72459 | -71.43601 | 41346 ft | 371 kts | 193° |
| 2026-04-26 11:43 | -37.77557 | -71.44452 | 41347 ft | 370 kts | 193° |
| 2026-04-26 11:43 | -37.82637 | -71.45301 | 41348 ft | 369 kts | 193° |
| 2026-04-26 11:44 | -37.87765 | -71.46159 | 41345 ft | 370 kts | 193° |
| 2026-04-26 11:44 | -37.92832 | -71.47007 | 41353 ft | 369 kts | 193° |
| 2026-04-26 11:45 | -37.97955 | -71.47868 | 41355 ft | 370 kts | 192° |
| 2026-04-26 11:45 | -38.03060 | -71.48725 | 41358 ft | 371 kts | 192° |
| 2026-04-26 11:46 | -38.08156 | -71.49581 | 41354 ft | 371 kts | 192° |
| 2026-04-26 11:46 | -38.13299 | -71.50447 | 41353 ft | 371 kts | 192° |
| 2026-04-26 11:47 | -38.18399 | -71.51309 | 41350 ft | 371 kts | 192° |
| 2026-04-26 11:47 | -38.23508 | -71.52172 | 41355 ft | 370 kts | 192° |
| 2026-04-26 11:48 | -38.28585 | -71.53030 | 41353 ft | 369 kts | 192° |
| 2026-04-26 11:48 | -38.33693 | -71.53896 | 41358 ft | 368 kts | 192° |
| 2026-04-26 11:49 | -38.38760 | -71.54755 | 41363 ft | 367 kts | 192° |
| 2026-04-26 11:49 | -38.43808 | -71.55612 | 41355 ft | 367 kts | 192° |
| 2026-04-26 11:50 | -38.48874 | -71.56474 | 41360 ft | 368 kts | 192° |
| 2026-04-26 11:50 | -38.53943 | -71.57398 | 41355 ft | 368 kts | 193° |
| 2026-04-26 11:51 | -38.59037 | -71.58386 | 41361 ft | 370 kts | 193° |
| 2026-04-26 11:51 | -38.64114 | -71.59338 | 41362 ft | 370 kts | 192° |
| 2026-04-26 11:52 | -38.68377 | -71.60152 | 41360 ft | 370 kts | 192° |
| 2026-04-26 11:52 | -38.74318 | -71.61281 | 41362 ft | 371 kts | 192° |
| 2026-04-26 11:53 | -38.79417 | -71.62256 | 41362 ft | 371 kts | 192° |
| 2026-04-26 11:54 | -38.87069 | -71.63716 | 41362 ft | 370 kts | 192° |
| 2026-04-26 11:54 | -38.92135 | -71.64686 | 41367 ft | 367 kts | 192° |
| 2026-04-26 11:55 | -38.97203 | -71.65656 | 41365 ft | 367 kts | 192° |
| 2026-04-26 11:55 | -39.02196 | -71.66615 | 41361 ft | 366 kts | 192° |
| 2026-04-26 11:56 | -39.07257 | -71.67587 | 41363 ft | 366 kts | 192° |
| 2026-04-26 11:56 | -39.12326 | -71.68563 | 41359 ft | 367 kts | 192° |
| 2026-04-26 11:57 | -39.17346 | -71.69530 | 41353 ft | 367 kts | 192° |
| 2026-04-26 11:57 | -39.22383 | -71.70501 | 41358 ft | 367 kts | 192° |
| 2026-04-26 11:58 | -39.26604 | -71.71318 | 41351 ft | 366 kts | 192° |
| 2026-04-26 11:58 | -39.31628 | -71.72289 | 41350 ft | 366 kts | 192° |
| 2026-04-26 11:59 | -39.36683 | -71.73269 | 41348 ft | 365 kts | 192° |
| 2026-04-26 11:59 | -39.41693 | -71.74241 | 41350 ft | 364 kts | 192° |
| 2026-04-26 12:00 | -39.46686 | -71.75211 | 41345 ft | 363 kts | 192° |
| 2026-04-26 12:00 | -39.51680 | -71.76184 | 41345 ft | 363 kts | 192° |
| 2026-04-26 12:01 | -39.56678 | -71.77158 | 41339 ft | 363 kts | 192° |
| 2026-04-26 12:01 | -39.61670 | -71.78133 | 41339 ft | 363 kts | 192° |
| 2026-04-26 12:02 | -39.66685 | -71.79112 | 41344 ft | 362 kts | 192° |
| 2026-04-26 12:02 | -39.71647 | -71.80084 | 41342 ft | 361 kts | 192° |
| 2026-04-26 12:03 | -39.76618 | -71.81058 | 41340 ft | 362 kts | 192° |
| 2026-04-26 12:03 | -39.81588 | -71.82034 | 41331 ft | 361 kts | 192° |
| 2026-04-26 12:04 | -39.86552 | -71.83011 | 41328 ft | 361 kts | 192° |
| 2026-04-26 12:04 | -39.91524 | -71.83988 | 41330 ft | 360 kts | 192° |
| 2026-04-26 12:05 | -39.96458 | -71.84963 | 41339 ft | 360 kts | 192° |
| 2026-04-26 12:05 | -40.01417 | -71.85942 | 41341 ft | 360 kts | 192° |
| 2026-04-26 12:06 | -40.06377 | -71.86924 | 41336 ft | 361 kts | 192° |
| 2026-04-26 12:06 | -40.11339 | -71.87906 | 41339 ft | 361 kts | 192° |
| 2026-04-26 12:06 | -40.13796 | -71.88394 | 41529 ft | 360 kts | 192° |
| 2026-04-26 12:07 | -40.16289 | -71.88887 | 41708 ft | 360 kts | 192° |
| 2026-04-26 12:07 | -40.18775 | -71.89381 | 41865 ft | 361 kts | 192° |
| 2026-04-26 12:07 | -40.21238 | -71.89871 | 42025 ft | 361 kts | 192° |
| 2026-04-26 12:07 | -40.23740 | -71.90369 | 42166 ft | 362 kts | 191° |
| 2026-04-26 12:08 | -40.26239 | -71.90866 | 42325 ft | 363 kts | 192° |
| 2026-04-26 12:08 | -40.28711 | -71.91359 | 42459 ft | 363 kts | 192° |
| 2026-04-26 12:08 | -40.31225 | -71.91860 | 42621 ft | 364 kts | 192° |
| 2026-04-26 12:09 | -40.36248 | -71.92862 | 42893 ft | 365 kts | 192° |
| 2026-04-26 12:09 | -40.38757 | -71.93363 | 43001 ft | 366 kts | 192° |
| 2026-04-26 12:09 | -40.41291 | -71.93868 | 43126 ft | 366 kts | 192° |
| 2026-04-26 12:09 | -40.43774 | -71.94368 | 43269 ft | 366 kts | 192° |
| 2026-04-26 12:10 | -40.46311 | -71.94875 | 43413 ft | 367 kts | 192° |
| 2026-04-26 12:10 | -40.51355 | -71.95886 | 43649 ft | 368 kts | 192° |
| 2026-04-26 12:10 | -40.53896 | -71.96395 | 43750 ft | 368 kts | 192° |
| 2026-04-26 12:11 | -40.56414 | -71.96901 | 43905 ft | 369 kts | 192° |
| 2026-04-26 12:11 | -40.58963 | -71.97414 | 44014 ft | 369 kts | 192° |
| 2026-04-26 12:11 | -40.61507 | -71.97925 | 44151 ft | 369 kts | 192° |
| 2026-04-26 12:11 | -40.64058 | -71.98439 | 44282 ft | 370 kts | 192° |
| 2026-04-26 12:12 | -40.66577 | -71.98946 | 44408 ft | 370 kts | 192° |
| 2026-04-26 12:12 | -40.69140 | -71.99464 | 44514 ft | 370 kts | 192° |
| 2026-04-26 12:12 | -40.71669 | -71.99974 | 44627 ft | 371 kts | 192° |
| 2026-04-26 12:13 | -40.76795 | -72.01009 | 44863 ft | 372 kts | 192° |
| 2026-04-26 12:13 | -40.81917 | -72.02046 | 45023 ft | 373 kts | 192° |
| 2026-04-26 12:13 | -40.84462 | -72.02560 | 45146 ft | 373 kts | 192° |
| 2026-04-26 12:14 | -40.87035 | -72.03082 | 45253 ft | 372 kts | 192° |
| 2026-04-26 12:14 | -40.92171 | -72.04124 | 45279 ft | 376 kts | 192° |
| 2026-04-26 12:15 | -40.97353 | -72.05178 | 45310 ft | 379 kts | 192° |
| 2026-04-26 12:15 | -41.02557 | -72.06237 | 45315 ft | 378 kts | 191° |
| 2026-04-26 12:16 | -41.07754 | -72.07297 | 45313 ft | 379 kts | 191° |
| 2026-04-26 12:16 | -41.12961 | -72.08360 | 45319 ft | 378 kts | 192° |
| 2026-04-26 12:17 | -41.18185 | -72.09430 | 45318 ft | 378 kts | 192° |
| 2026-04-26 12:17 | -41.23375 | -72.10493 | 45311 ft | 379 kts | 191° |
| 2026-04-26 12:18 | -41.28573 | -72.11550 | 45319 ft | 379 kts | 190° |
| 2026-04-26 12:18 | -41.33810 | -72.12350 | 45320 ft | 379 kts | 189° |
| 2026-04-26 12:19 | -41.39050 | -72.13173 | 45325 ft | 380 kts | 189° |
| 2026-04-26 12:19 | -41.44300 | -72.13985 | 45326 ft | 380 kts | 189° |
| 2026-04-26 12:20 | -41.49574 | -72.14807 | 45334 ft | 381 kts | 189° |
| 2026-04-26 12:20 | -41.54841 | -72.15630 | 45337 ft | 381 kts | 189° |
| 2026-04-26 12:21 | -41.60097 | -72.16449 | 45338 ft | 381 kts | 189° |
| 2026-04-26 12:21 | -41.65376 | -72.17276 | 45342 ft | 381 kts | 189° |
| 2026-04-26 12:22 | -41.70634 | -72.18100 | 45341 ft | 381 kts | 189° |
| 2026-04-26 12:22 | -41.75884 | -72.18925 | 45348 ft | 380 kts | 189° |
| 2026-04-26 12:23 | -41.81130 | -72.19748 | 45342 ft | 380 kts | 189° |
| 2026-04-26 12:23 | -41.86379 | -72.20576 | 45351 ft | 379 kts | 189° |
| 2026-04-26 12:24 | -41.91623 | -72.21404 | 45348 ft | 379 kts | 189° |
| 2026-04-26 12:24 | -41.96866 | -72.22233 | 45347 ft | 379 kts | 189° |
| 2026-04-26 12:25 | -42.04729 | -72.23477 | 45351 ft | 379 kts | 189° |
| 2026-04-26 12:25 | -42.09938 | -72.24304 | 45353 ft | 378 kts | 189° |
| 2026-04-26 12:26 | -42.15172 | -72.25137 | 45349 ft | 379 kts | 189° |
| 2026-04-26 12:26 | -42.20426 | -72.25972 | 45346 ft | 379 kts | 189° |
| 2026-04-26 12:27 | -42.25644 | -72.26805 | 45359 ft | 380 kts | 189° |
| 2026-04-26 12:27 | -42.30917 | -72.27647 | 45358 ft | 381 kts | 189° |
| 2026-04-26 12:28 | -42.36184 | -72.28490 | 45359 ft | 381 kts | 189° |
| 2026-04-26 12:28 | -42.41469 | -72.29337 | 45361 ft | 382 kts | 189° |
| 2026-04-26 12:29 | -42.46730 | -72.30182 | 45359 ft | 382 kts | 189° |
| 2026-04-26 12:30 | -42.54640 | -72.31454 | 45367 ft | 381 kts | 189° |
| 2026-04-26 12:30 | -42.59916 | -72.32305 | 45362 ft | 380 kts | 189° |
| 2026-04-26 12:31 | -42.67758 | -72.33572 | 45369 ft | 379 kts | 190° |
| 2026-04-26 12:31 | -42.72995 | -72.34421 | 45376 ft | 378 kts | 189° |
| 2026-04-26 12:32 | -42.78180 | -72.35262 | 45377 ft | 376 kts | 189° |
| 2026-04-26 12:33 | -42.85988 | -72.36531 | 45383 ft | 376 kts | 189° |
| 2026-04-26 12:33 | -42.91163 | -72.37374 | 45381 ft | 375 kts | 189° |
| 2026-04-26 12:34 | -42.96344 | -72.38220 | 45391 ft | 376 kts | 189° |
| 2026-04-26 12:34 | -43.01559 | -72.39071 | 45377 ft | 375 kts | 189° |
| 2026-04-26 12:35 | -43.06736 | -72.39920 | 45390 ft | 375 kts | 189° |
| 2026-04-26 12:35 | -43.11924 | -72.40771 | 45384 ft | 377 kts | 189° |
| 2026-04-26 12:36 | -43.17126 | -72.41624 | 45399 ft | 378 kts | 189° |
| 2026-04-26 12:36 | -43.22348 | -72.42484 | 45396 ft | 377 kts | 189° |
| 2026-04-26 12:37 | -43.27557 | -72.43343 | 45400 ft | 376 kts | 189° |
| 2026-04-26 12:37 | -43.32754 | -72.44201 | 45402 ft | 375 kts | 189° |
| 2026-04-26 12:38 | -43.37910 | -72.45054 | 45406 ft | 375 kts | 189° |
| 2026-04-26 12:38 | -43.43104 | -72.45916 | 45404 ft | 376 kts | 189° |
| 2026-04-26 12:39 | -43.48295 | -72.46776 | 45410 ft | 375 kts | 189° |
| 2026-04-26 12:39 | -43.53460 | -72.47636 | 45416 ft | 375 kts | 189° |
| 2026-04-26 12:40 | -43.58645 | -72.48500 | 45407 ft | 375 kts | 189° |
| 2026-04-26 12:40 | -43.63827 | -72.49365 | 45413 ft | 374 kts | 189° |
| 2026-04-26 12:41 | -43.68981 | -72.50228 | 45415 ft | 373 kts | 189° |
| 2026-04-26 12:41 | -43.74145 | -72.51092 | 45415 ft | 374 kts | 189° |
| 2026-04-26 12:42 | -43.79310 | -72.51960 | 45412 ft | 374 kts | 189° |
| 2026-04-26 12:42 | -43.84476 | -72.52827 | 45415 ft | 374 kts | 189° |
| 2026-04-26 12:43 | -43.89663 | -72.53702 | 45415 ft | 375 kts | 189° |
| 2026-04-26 12:43 | -43.94806 | -72.54569 | 45420 ft | 374 kts | 189° |
| 2026-04-26 12:44 | -43.99999 | -72.55447 | 45414 ft | 375 kts | 189° |
| 2026-04-26 12:44 | -44.05150 | -72.56319 | 45412 ft | 374 kts | 189° |
| 2026-04-26 12:45 | -44.09473 | -72.57052 | 45420 ft | 374 kts | 189° |
| 2026-04-26 12:45 | -44.14639 | -72.57929 | 45411 ft | 375 kts | 189° |
| 2026-04-26 12:46 | -44.19828 | -72.58813 | 45410 ft | 375 kts | 189° |
| 2026-04-26 12:46 | -44.25006 | -72.59692 | 45406 ft | 375 kts | 189° |
| 2026-04-26 12:47 | -44.30167 | -72.60573 | 45409 ft | 375 kts | 189° |
| 2026-04-26 12:47 | -44.35356 | -72.61459 | 45406 ft | 376 kts | 189° |
| 2026-04-26 12:48 | -44.40571 | -72.62351 | 45409 ft | 376 kts | 189° |
| 2026-04-26 12:48 | -44.45735 | -72.63237 | 45405 ft | 376 kts | 189° |
| 2026-04-26 12:49 | -44.50915 | -72.64126 | 45400 ft | 375 kts | 189° |
| 2026-04-26 12:49 | -44.56091 | -72.65016 | 45408 ft | 375 kts | 189° |
| 2026-04-26 12:50 | -44.61266 | -72.65908 | 45403 ft | 376 kts | 189° |
| 2026-04-26 12:50 | -44.66457 | -72.66805 | 45410 ft | 376 kts | 189° |
| 2026-04-26 12:51 | -44.71669 | -72.67706 | 45412 ft | 376 kts | 189° |
| 2026-04-26 12:51 | -44.76842 | -72.68603 | 45411 ft | 376 kts | 189° |
| 2026-04-26 12:52 | -44.82028 | -72.69501 | 45408 ft | 375 kts | 189° |
| 2026-04-26 12:52 | -44.87200 | -72.70401 | 45403 ft | 375 kts | 189° |
| 2026-04-26 12:53 | -44.92367 | -72.71302 | 45402 ft | 375 kts | 189° |
| 2026-04-26 12:53 | -44.97542 | -72.72204 | 45404 ft | 374 kts | 189° |
| 2026-04-26 12:54 | -45.02730 | -72.73112 | 45410 ft | 374 kts | 189° |
| 2026-04-26 12:54 | -45.07891 | -72.74015 | 45404 ft | 374 kts | 189° |
| 2026-04-26 12:55 | -45.13061 | -72.74922 | 45402 ft | 374 kts | 189° |
| 2026-04-26 12:55 | -45.18216 | -72.75829 | 45405 ft | 374 kts | 189° |
| 2026-04-26 12:56 | -45.23384 | -72.76739 | 45396 ft | 375 kts | 189° |
| 2026-04-26 12:56 | -45.28548 | -72.77650 | 45393 ft | 375 kts | 189° |
| 2026-04-26 12:57 | -45.33748 | -72.78569 | 45394 ft | 375 kts | 189° |
| 2026-04-26 12:57 | -45.38922 | -72.79485 | 45392 ft | 376 kts | 189° |
| 2026-04-26 12:58 | -45.46723 | -72.80869 | 45398 ft | 376 kts | 189° |
| 2026-04-26 12:58 | -45.51919 | -72.81795 | 45389 ft | 376 kts | 189° |
| 2026-04-26 12:59 | -45.57083 | -72.82715 | 45392 ft | 376 kts | 189° |
| 2026-04-26 12:59 | -45.62283 | -72.83644 | 45396 ft | 376 kts | 189° |
| 2026-04-26 13:00 | -45.67487 | -72.84574 | 45396 ft | 376 kts | 189° |
| 2026-04-26 13:00 | -45.72667 | -72.85503 | 45400 ft | 376 kts | 189° |
| 2026-04-26 13:01 | -45.77852 | -72.86433 | 45405 ft | 377 kts | 189° |
| 2026-04-26 13:01 | -45.83078 | -72.87375 | 45398 ft | 377 kts | 189° |
| 2026-04-26 13:02 | -45.88262 | -72.88309 | 45404 ft | 377 kts | 189° |
| 2026-04-26 13:02 | -45.93456 | -72.89247 | 45404 ft | 377 kts | 189° |
| 2026-04-26 13:03 | -45.98679 | -72.90192 | 45403 ft | 378 kts | 189° |
| 2026-04-26 13:03 | -46.03890 | -72.91136 | 45407 ft | 378 kts | 189° |
| 2026-04-26 13:04 | -46.09099 | -72.92082 | 45401 ft | 378 kts | 189° |
| 2026-04-26 13:04 | -46.14348 | -72.93038 | 45398 ft | 378 kts | 189° |
| 2026-04-26 13:05 | -46.19549 | -72.93985 | 45400 ft | 378 kts | 189° |
| 2026-04-26 13:05 | -46.24781 | -72.94942 | 45405 ft | 378 kts | 189° |
| 2026-04-26 13:06 | -46.29974 | -72.95892 | 45406 ft | 377 kts | 189° |
| 2026-04-26 13:06 | -46.35185 | -72.96847 | 45399 ft | 378 kts | 189° |
| 2026-04-26 13:07 | -46.40395 | -72.97804 | 45397 ft | 378 kts | 189° |
| 2026-04-26 13:07 | -46.45603 | -72.98764 | 45386 ft | 378 kts | 189° |
| 2026-04-26 13:08 | -46.50824 | -72.99725 | 45386 ft | 379 kts | 189° |
| 2026-04-26 13:08 | -46.56079 | -73.00697 | 45378 ft | 379 kts | 189° |
| 2026-04-26 13:09 | -46.61302 | -73.01665 | 45377 ft | 380 kts | 189° |
| 2026-04-26 13:09 | -46.66523 | -73.02633 | 45368 ft | 379 kts | 189° |
| 2026-04-26 13:10 | -46.71756 | -73.03606 | 45369 ft | 379 kts | 189° |
| 2026-04-26 13:10 | -46.76979 | -73.04578 | 45366 ft | 379 kts | 189° |
| 2026-04-26 13:11 | -46.82224 | -73.05557 | 45358 ft | 380 kts | 190° |
| 2026-04-26 13:11 | -46.87457 | -73.06536 | 45359 ft | 381 kts | 190° |
| 2026-04-26 13:12 | -46.92737 | -73.07525 | 45354 ft | 381 kts | 190° |
| 2026-04-26 13:12 | -46.97992 | -73.08512 | 45357 ft | 382 kts | 190° |
| 2026-04-26 13:13 | -47.03260 | -73.09502 | 45354 ft | 382 kts | 190° |
| 2026-04-26 13:13 | -47.08530 | -73.10500 | 45358 ft | 382 kts | 190° |
| 2026-04-26 13:14 | -47.13803 | -73.11498 | 45347 ft | 383 kts | 190° |
| 2026-04-26 13:14 | -47.19082 | -73.12499 | 45357 ft | 383 kts | 190° |
| 2026-04-26 13:15 | -47.24370 | -73.13505 | 45355 ft | 383 kts | 190° |
| 2026-04-26 13:15 | -47.28793 | -73.14347 | 45356 ft | 383 kts | 189° |
| 2026-04-26 13:16 | -47.34969 | -73.15526 | 45350 ft | 382 kts | 190° |
| 2026-04-26 13:16 | -47.40239 | -73.16534 | 45344 ft | 382 kts | 190° |
| 2026-04-26 13:17 | -47.48093 | -73.18039 | 45361 ft | 380 kts | 190° |
| 2026-04-26 13:18 | -47.55993 | -73.19559 | 45361 ft | 382 kts | 190° |
| 2026-04-26 13:19 | -47.63886 | -73.21083 | 45362 ft | 382 kts | 190° |
| 2026-04-26 13:19 | -47.69172 | -73.22105 | 45364 ft | 383 kts | 190° |
| 2026-04-26 13:20 | -47.74450 | -73.23126 | 45369 ft | 383 kts | 190° |
| 2026-04-26 13:20 | -47.79759 | -73.24159 | 45364 ft | 384 kts | 190° |
| 2026-04-26 13:21 | -47.85036 | -73.25186 | 45360 ft | 384 kts | 190° |
| 2026-04-26 13:21 | -47.90318 | -73.26215 | 45363 ft | 384 kts | 190° |
| 2026-04-26 13:22 | -47.95610 | -73.27249 | 45359 ft | 384 kts | 190° |
| 2026-04-26 13:22 | -48.00913 | -73.28287 | 45362 ft | 384 kts | 190° |
| 2026-04-26 13:23 | -48.06231 | -73.29331 | 45357 ft | 384 kts | 190° |
| 2026-04-26 13:23 | -48.11519 | -73.30371 | 45351 ft | 384 kts | 190° |
| 2026-04-26 13:24 | -48.16824 | -73.31416 | 45355 ft | 385 kts | 190° |
| 2026-04-26 13:24 | -48.22151 | -73.32468 | 45349 ft | 385 kts | 190° |
| 2026-04-26 13:25 | -48.27451 | -73.33516 | 45347 ft | 385 kts | 190° |
| 2026-04-26 13:25 | -48.32731 | -73.34565 | 45340 ft | 384 kts | 190° |
| 2026-04-26 13:26 | -48.38067 | -73.35630 | 45335 ft | 384 kts | 191° |
| 2026-04-26 13:26 | -48.43357 | -73.36691 | 45325 ft | 384 kts | 190° |
| 2026-04-26 13:27 | -48.48648 | -73.37758 | 45325 ft | 385 kts | 190° |
| 2026-04-26 13:27 | -48.53959 | -73.38836 | 45318 ft | 385 kts | 191° |
| 2026-04-26 13:28 | -48.59269 | -73.39921 | 45315 ft | 386 kts | 191° |
| 2026-04-26 13:28 | -48.64597 | -73.41014 | 45312 ft | 386 kts | 191° |
| 2026-04-26 13:29 | -48.69924 | -73.42113 | 45314 ft | 386 kts | 191° |
| 2026-04-26 13:29 | -48.75250 | -73.43220 | 45305 ft | 387 kts | 191° |
| 2026-04-26 13:30 | -48.80591 | -73.44334 | 45304 ft | 388 kts | 191° |
| 2026-04-26 13:30 | -48.85928 | -73.45455 | 45309 ft | 388 kts | 191° |
| 2026-04-26 13:31 | -48.90371 | -73.46393 | 45308 ft | 388 kts | 191° |
| 2026-04-26 13:31 | -48.95712 | -73.47524 | 45302 ft | 387 kts | 191° |
| 2026-04-26 13:32 | -49.01051 | -73.48662 | 45293 ft | 389 kts | 191° |
| 2026-04-26 13:32 | -49.06409 | -73.49810 | 45302 ft | 390 kts | 191° |
| 2026-04-26 13:33 | -49.11807 | -73.50976 | 45295 ft | 391 kts | 191° |
| 2026-04-26 13:33 | -49.17188 | -73.52144 | 45293 ft | 391 kts | 191° |
| 2026-04-26 13:34 | -49.22556 | -73.53315 | 45292 ft | 391 kts | 191° |
| 2026-04-26 13:34 | -49.27927 | -73.54492 | 45288 ft | 391 kts | 191° |
| 2026-04-26 13:35 | -49.33337 | -73.55684 | 45295 ft | 391 kts | 191° |
| 2026-04-26 13:35 | -49.38706 | -73.56873 | 45288 ft | 391 kts | 191° |
| 2026-04-26 13:36 | -49.44109 | -73.58076 | 45292 ft | 391 kts | 191° |
| 2026-04-26 13:36 | -49.49494 | -73.59282 | 45284 ft | 391 kts | 191° |
| 2026-04-26 13:37 | -49.54865 | -73.60488 | 45281 ft | 391 kts | 191° |
| 2026-04-26 13:37 | -49.60258 | -73.61706 | 45278 ft | 391 kts | 191° |
| 2026-04-26 13:38 | -49.65630 | -73.62928 | 45280 ft | 391 kts | 192° |
| 2026-04-26 13:38 | -49.71014 | -73.64157 | 45274 ft | 391 kts | 191° |
| 2026-04-26 13:39 | -49.76401 | -73.65392 | 45267 ft | 392 kts | 192° |
| 2026-04-26 13:39 | -49.81793 | -73.66636 | 45265 ft | 392 kts | 192° |
| 2026-04-26 13:40 | -49.87218 | -73.67895 | 45264 ft | 392 kts | 192° |
| 2026-04-26 13:40 | -49.92630 | -73.69013 | 45027 ft | 394 kts | 190° |
| 2026-04-26 13:40 | -49.95339 | -73.69508 | 44646 ft | 387 kts | 190° |
| 2026-04-26 13:41 | -49.97982 | -73.69973 | 44044 ft | 387 kts | 189° |
| 2026-04-26 13:41 | -50.00688 | -73.70432 | 43417 ft | 387 kts | 189° |
| 2026-04-26 13:41 | -50.03346 | -73.70889 | 42817 ft | 388 kts | 189° |
| 2026-04-26 13:41 | -50.06021 | -73.71360 | 42229 ft | 390 kts | 190° |
| 2026-04-26 13:42 | -50.08739 | -73.71835 | 41663 ft | 392 kts | 190° |
| 2026-04-26 13:42 | -50.11462 | -73.72308 | 41108 ft | 393 kts | 190° |
| 2026-04-26 13:42 | -50.14162 | -73.72778 | 40570 ft | 393 kts | 190° |
| 2026-04-26 13:42 | -50.16870 | -73.73250 | 40054 ft | 393 kts | 190° |
| 2026-04-26 13:43 | -50.19599 | -73.73729 | 39542 ft | 392 kts | 190° |
| 2026-04-26 13:43 | -50.22288 | -73.74200 | 39076 ft | 390 kts | 190° |
| 2026-04-26 13:43 | -50.24996 | -73.74672 | 38555 ft | 388 kts | 190° |
| 2026-04-26 13:43 | -50.27650 | -73.75139 | 37988 ft | 385 kts | 191° |
| 2026-04-26 13:44 | -50.30341 | -73.75403 | 37444 ft | 386 kts | 185° |
| 2026-04-26 13:44 | -50.33005 | -73.75247 | 36915 ft | 387 kts | 181° |
| 2026-04-26 13:44 | -50.35699 | -73.74664 | 36389 ft | 390 kts | 176° |
| 2026-04-26 13:44 | -50.38336 | -73.73660 | 35877 ft | 394 kts | 171° |
| 2026-04-26 13:45 | -50.40952 | -73.72206 | 35378 ft | 399 kts | 166° |
| 2026-04-26 13:45 | -50.43457 | -73.70340 | 34891 ft | 405 kts | 160° |
| 2026-04-26 13:45 | -50.45879 | -73.68111 | 34414 ft | 408 kts | 158° |
| 2026-04-26 13:45 | -50.48332 | -73.65817 | 33896 ft | 409 kts | 158° |
| 2026-04-26 13:46 | -50.50786 | -73.63533 | 33350 ft | 408 kts | 158° |
| 2026-04-26 13:46 | -50.53241 | -73.61233 | 32869 ft | 412 kts | 158° |
| 2026-04-26 13:46 | -50.55702 | -73.58934 | 32402 ft | 420 kts | 158° |
| 2026-04-26 13:46 | -50.58249 | -73.56539 | 31938 ft | 429 kts | 157° |
| 2026-04-26 13:47 | -50.60843 | -73.54102 | 31489 ft | 436 kts | 157° |
| 2026-04-26 13:47 | -50.63434 | -73.51658 | 31047 ft | 442 kts | 156° |
| 2026-04-26 13:47 | -50.66085 | -73.49158 | 30554 ft | 440 kts | 156° |
| 2026-04-26 13:47 | -50.68707 | -73.46672 | 30038 ft | 436 kts | 156° |
| 2026-04-26 13:48 | -50.71287 | -73.44237 | 29477 ft | 434 kts | 156° |
| 2026-04-26 13:48 | -50.73901 | -73.41775 | 28862 ft | 437 kts | 156° |
| 2026-04-26 13:48 | -50.76505 | -73.39309 | 28244 ft | 440 kts | 155° |
| 2026-04-26 13:48 | -50.79144 | -73.36802 | 27637 ft | 440 kts | 154° |
| 2026-04-26 13:49 | -50.81740 | -73.34324 | 27043 ft | 431 kts | 154° |
| 2026-04-26 13:49 | -50.84271 | -73.31916 | 26467 ft | 424 kts | 154° |
| 2026-04-26 13:49 | -50.86797 | -73.29519 | 25883 ft | 419 kts | 154° |
| 2026-04-26 13:49 | -50.89270 | -73.27160 | 25337 ft | 415 kts | 153° |
| 2026-04-26 13:50 | -50.91741 | -73.24803 | 24778 ft | 412 kts | 153° |
| 2026-04-26 13:50 | -50.94198 | -73.22448 | 24232 ft | 410 kts | 153° |
| 2026-04-26 13:50 | -50.96617 | -73.20138 | 23703 ft | 409 kts | 152° |
| 2026-04-26 13:50 | -50.99070 | -73.17784 | 23068 ft | 408 kts | 152° |
| 2026-04-26 13:51 | -51.01481 | -73.15472 | 22456 ft | 408 kts | 152° |
| 2026-04-26 13:51 | -51.03921 | -73.13129 | 21843 ft | 408 kts | 152° |
| 2026-04-26 13:51 | -51.06325 | -73.10813 | 21259 ft | 408 kts | 152° |
| 2026-04-26 13:51 | -51.08761 | -73.08468 | 20672 ft | 407 kts | 153° |
| 2026-04-26 13:52 | -51.11180 | -73.06133 | 20103 ft | 400 kts | 153° |
| 2026-04-26 13:52 | -51.13503 | -73.03889 | 19546 ft | 388 kts | 153° |
| 2026-04-26 13:52 | -51.15791 | -73.01671 | 18994 ft | 380 kts | 153° |
| 2026-04-26 13:52 | -51.18023 | -72.99519 | 18452 ft | 376 kts | 153° |
| 2026-04-26 13:53 | -51.20267 | -72.97350 | 17831 ft | 375 kts | 153° |
| 2026-04-26 13:53 | -51.22501 | -72.95166 | 17215 ft | 374 kts | 152° |
| 2026-04-26 13:53 | -51.24678 | -72.93001 | 16622 ft | 372 kts | 152° |
| 2026-04-26 13:53 | -51.26876 | -72.90821 | 16034 ft | 369 kts | 153° |
| 2026-04-26 13:54 | -51.29065 | -72.88667 | 15458 ft | 366 kts | 153° |
| 2026-04-26 13:54 | -51.31199 | -72.86559 | 14905 ft | 363 kts | 152° |
| 2026-04-26 13:54 | -51.33354 | -72.84424 | 14341 ft | 361 kts | 153° |
| 2026-04-26 13:55 | -51.37604 | -72.80206 | 13451 ft | 361 kts | 152° |
| 2026-04-26 13:55 | -51.39021 | -72.78801 | 13244 ft | 356 kts | 152° |
| 2026-04-26 13:55 | -51.43884 | -72.73997 | 12517 ft | 358 kts | 154° |
| 2026-04-26 13:56 | -51.46191 | -72.72749 | 12196 ft | 346 kts | 173° |
| 2026-04-26 13:56 | -51.48537 | -72.72000 | 11894 ft | 340 kts | 172° |
| 2026-04-26 13:56 | -51.50844 | -72.71291 | 11598 ft | 337 kts | 173° |
| 2026-04-26 13:56 | -51.53146 | -72.70619 | 11302 ft | 335 kts | 173° |
| 2026-04-26 13:57 | -51.55440 | -72.69924 | 11006 ft | 334 kts | 173° |
| 2026-04-26 13:57 | -51.57693 | -72.69221 | 10715 ft | 324 kts | 172° |
| 2026-04-26 13:57 | -51.59844 | -72.68551 | 10431 ft | 305 kts | 173° |
| 2026-04-26 13:57 | -51.61889 | -72.67929 | 10168 ft | 292 kts | 173° |
| 2026-04-26 13:58 | -51.63843 | -72.67331 | 9823 ft | 284 kts | 173° |
| 2026-04-26 13:58 | -51.65765 | -72.66746 | 9535 ft | 277 kts | 173° |
| 2026-04-26 13:58 | -51.67642 | -72.66165 | 9279 ft | 273 kts | 173° |
| 2026-04-26 13:58 | -51.69503 | -72.65593 | 9036 ft | 278 kts | 173° |
| 2026-04-26 13:59 | -51.71421 | -72.65009 | 8795 ft | 280 kts | 173° |
| 2026-04-26 13:59 | -51.73342 | -72.64411 | 8542 ft | 282 kts | 173° |
| 2026-04-26 13:59 | -51.75258 | -72.63814 | 8305 ft | 283 kts | 173° |
| 2026-04-26 14:00 | -51.81115 | -72.62009 | 7546 ft | 286 kts | 173° |
| 2026-04-26 14:00 | -51.83057 | -72.61405 | 7297 ft | 286 kts | 173° |
| 2026-04-26 14:00 | -51.84366 | -72.61005 | 7131 ft | 287 kts | 173° |
| 2026-04-26 14:01 | -51.86911 | -72.60204 | 7019 ft | 269 kts | 174° |
| 2026-04-26 14:01 | -51.88719 | -72.59616 | 6814 ft | 266 kts | 170° |
| 2026-04-26 14:01 | -51.90422 | -72.58378 | 6552 ft | 270 kts | 153° |
| 2026-04-26 14:01 | -51.91878 | -72.56476 | 6283 ft | 275 kts | 135° |
| 2026-04-26 14:02 | -51.93000 | -72.53918 | 6011 ft | 281 kts | 119° |
| 2026-04-26 14:02 | -51.93638 | -72.50932 | 5842 ft | 286 kts | 102° |
| 2026-04-26 14:02 | -51.93743 | -72.47702 | 5676 ft | 290 kts | 84° |
| 2026-04-26 14:02 | -51.93275 | -72.44515 | 5513 ft | 290 kts | 65° |
| 2026-04-26 14:03 | -51.92275 | -72.41683 | 5359 ft | 287 kts | 48° |
| 2026-04-26 14:03 | -51.90865 | -72.39503 | 5198 ft | 276 kts | 31° |
| 2026-04-26 14:03 | -51.89219 | -72.38088 | 5046 ft | 261 kts | 15° |
| 2026-04-26 14:03 | -51.87503 | -72.37421 | 4750 ft | 249 kts | 360° |
| 2026-04-26 14:04 | -51.85812 | -72.37171 | 4423 ft | 239 kts | 1° |
| 2026-04-26 14:04 | -51.84179 | -72.36868 | 4103 ft | 233 kts | 1° |
| 2026-04-26 14:04 | -51.82595 | -72.36616 | 3789 ft | 228 kts | 1° |
| 2026-04-26 14:04 | -51.81027 | -72.36349 | 3555 ft | 222 kts | 2° |
| 2026-04-26 14:05 | -51.79526 | -72.36100 | 3340 ft | 216 kts | 2° |
| 2026-04-26 14:05 | -51.78052 | -72.35849 | 3120 ft | 205 kts | 3° |
| 2026-04-26 14:05 | -51.76680 | -72.35619 | 2897 ft | 193 kts | 3° |
| 2026-04-26 14:05 | -51.75408 | -72.35592 | 2767 ft | 169 kts | 349° |
| 2026-04-26 14:06 | -51.74360 | -72.35986 | 2609 ft | 143 kts | 338° |
| 2026-04-26 14:06 | -51.73505 | -72.36668 | 2468 ft | 129 kts | 328° |
| 2026-04-26 14:06 | -51.72823 | -72.37455 | 2304 ft | 116 kts | 317° |
| 2026-04-26 14:06 | -51.72272 | -72.38358 | 2130 ft | 109 kts | 308° |
| 2026-04-26 14:07 | -51.71847 | -72.39328 | 2045 ft | 105 kts | 302° |
| 2026-04-26 14:07 | -51.71499 | -72.40366 | 1996 ft | 104 kts | 299° |
| 2026-04-26 14:07 | -51.71150 | -72.41437 | 1893 ft | 111 kts | 298° |
| 2026-04-26 14:07 | -51.70762 | -72.42527 | 1723 ft | 115 kts | 301° |
| 2026-04-26 14:08 | -51.70339 | -72.43656 | 1544 ft | 116 kts | 302° |
| 2026-04-26 14:08 | -51.69950 | -72.44765 | 1350 ft | 113 kts | 300° |
| 2026-04-26 14:08 | -51.69554 | -72.45868 | 1143 ft | 110 kts | 302° |
| 2026-04-26 14:08 | -51.69172 | -72.46942 | 970 ft | 109 kts | 300° |
| 2026-04-26 14:09 | -51.68799 | -72.47995 | 827 ft | 108 kts | 301° |
| 2026-04-26 14:09 | -51.68430 | -72.49047 | 683 ft | 106 kts | 302° |
| 2026-04-26 14:09 | -51.68073 | -72.50059 | 545 ft | 103 kts | 301° |
| 2026-04-26 14:09 | -51.67720 | -72.51049 | 368 ft | 99 kts | 302° |
| 2026-04-26 14:10 | -51.67385 | -72.51985 | 223 ft | 92 kts | 302° |
| 2026-04-26 14:10 | -51.67136 | -72.52683 | 218 ft | 43 kts | 299° |
| 2026-04-26 14:10 | -51.67040 | -72.52963 | 216 ft | 16 kts | 300° |
| 2026-04-26 14:10 | -51.66976 | -72.53020 | 215 ft | 9 kts | 28° |
| 2026-04-26 14:11 | -51.66890 | -72.52912 | 216 ft | 5 kts | 114° |
| 2026-04-26 14:11 | -51.66895 | -72.52831 | 216 ft | 10 kts | 37° |
| 2026-04-26 14:11 | -51.66868 | -72.52822 | 216 ft | 0 kts | 299° |